sensor_id;sensor_type;location;lat;lon;timestamp;pressure;altitude;pressure_sealevel;temperature;humidity
11099;BME280;12223;42.650;23.364;2023-03-04T00:00:58;94643.91;;;6.34;100.00
11099;BME280;12223;42.650;23.364;2023-03-04T00:03:25;94639.09;;;6.37;100.00
11099;BME280;12223;42.650;23.364;2023-03-04T00:05:52;94647.19;;;6.42;100.00
11099;BME280;12223;42.650;23.364;2023-03-04T00:08:18;94642.13;;;6.41;100.00
11099;BME280;12223;42.650;23.364;2023-03-04T00:10:45;94650.81;;;6.41;100.00
11099;BME280;12223;42.650;23.364;2023-03-04T00:13:13;94654.03;;;6.37;100.00
11099;BME280;12223;42.650;23.364;2023-03-04T00:15:41;94645.94;;;6.32;100.00
11099;BME280;12223;42.650;23.364;2023-03-04T00:18:07;94638.06;;;6.32;100.00
11099;BME280;12223;42.650;23.364;2023-03-04T00:20:34;94635.97;;;6.21;100.00
11099;BME280;12223;42.650;23.364;2023-03-04T00:23:01;94631.75;;;5.85;100.00
11099;BME280;12223;42.650;23.364;2023-03-04T00:25:28;94623.53;;;5.88;100.00
11099;BME280;12223;42.650;23.364;2023-03-04T00:27:54;94610.88;;;5.92;100.00
11099;BME280;12223;42.650;23.364;2023-03-04T00:30:24;94620.06;;;5.81;100.00
11099;BME280;12223;42.650;23.364;2023-03-04T00:32:50;94611.72;;;5.71;100.00
11099;BME280;12223;42.650;23.364;2023-03-04T00:35:17;94605.13;;;5.75;100.00
11099;BME280;12223;42.650;23.364;2023-03-04T00:37:44;94602.31;;;5.83;100.00
11099;BME280;12223;42.650;23.364;2023-03-04T00:40:11;94603.72;;;5.79;100.00
11099;BME280;12223;42.650;23.364;2023-03-04T00:42:38;94605.44;;;5.93;100.00
11099;BME280;12223;42.650;23.364;2023-03-04T00:45:06;94613.34;;;6.07;100.00
11099;BME280;12223;42.650;23.364;2023-03-04T00:47:34;94633.75;;;6.11;100.00
11099;BME280;12223;42.650;23.364;2023-03-04T00:50:05;94628.53;;;6.18;100.00
11099;BME280;12223;42.650;23.364;2023-03-04T00:52:32;94632.78;;;6.25;100.00
11099;BME280;12223;42.650;23.364;2023-03-04T00:54:59;94638.25;;;6.30;100.00
11099;BME280;12223;42.650;23.364;2023-03-04T00:57:26;94645.53;;;6.35;100.00
11099;BME280;12223;42.650;23.364;2023-03-04T00:59:52;94638.44;;;6.29;100.00
11099;BME280;12223;42.650;23.364;2023-03-04T01:02:19;94630.97;;;6.26;100.00
11099;BME280;12223;42.650;23.364;2023-03-04T01:04:47;94639.28;;;6.36;100.00
11099;BME280;12223;42.650;23.364;2023-03-04T01:07:14;94645.97;;;6.38;100.00
11099;BME280;12223;42.650;23.364;2023-03-04T01:09:41;94637.28;;;6.38;100.00
11099;BME280;12223;42.650;23.364;2023-03-04T01:12:07;94637.50;;;6.43;100.00
11099;BME280;12223;42.650;23.364;2023-03-04T01:14:34;94637.50;;;6.43;100.00
11099;BME280;12223;42.650;23.364;2023-03-04T01:17:01;94634.25;;;6.41;100.00
11099;BME280;12223;42.650;23.364;2023-03-04T01:19:28;94625.78;;;6.45;100.00
11099;BME280;12223;42.650;23.364;2023-03-04T01:21:56;94617.91;;;6.45;100.00
11099;BME280;12223;42.650;23.364;2023-03-04T01:24:23;94628.66;;;6.51;100.00
11099;BME280;12223;42.650;23.364;2023-03-04T01:26:50;94617.91;;;6.45;100.00
11099;BME280;12223;42.650;23.364;2023-03-04T01:29:16;94628.44;;;6.52;100.00
11099;BME280;12223;42.650;23.364;2023-03-04T01:31:43;94623.16;;;6.45;100.00
11099;BME280;12223;42.650;23.364;2023-03-04T01:34:11;94629.41;;;6.38;100.00
11099;BME280;12223;42.650;23.364;2023-03-04T01:36:38;94631.19;;;6.24;100.00
11099;BME280;12223;42.650;23.364;2023-03-04T01:39:06;94614.22;;;6.27;100.00
11099;BME280;12223;42.650;23.364;2023-03-04T01:41:33;94617.47;;;6.29;100.00
11099;BME280;12223;42.650;23.364;2023-03-04T01:44:00;94618.41;;;6.15;100.00
11099;BME280;12223;42.650;23.364;2023-03-04T01:46:28;94616.09;;;5.92;100.00
11099;BME280;12223;42.650;23.364;2023-03-04T01:48:55;94604.66;;;5.99;100.00
11099;BME280;12223;42.650;23.364;2023-03-04T01:51:22;94598.81;;;6.04;100.00
11099;BME280;12223;42.650;23.364;2023-03-04T01:53:50;94622.84;;;6.14;100.00
11099;BME280;12223;42.650;23.364;2023-03-04T01:56:23;94611.78;;;6.19;100.00
11099;BME280;12223;42.650;23.364;2023-03-04T01:59:07;94618.84;;;6.18;100.00
11099;BME280;12223;42.650;23.364;2023-03-04T02:01:36;94611.78;;;6.19;100.00
11099;BME280;12223;42.650;23.364;2023-03-04T02:04:03;94618.03;;;6.18;100.00
11099;BME280;12223;42.650;23.364;2023-03-04T02:06:30;94616.81;;;6.20;100.00
11099;BME280;12223;42.650;23.364;2023-03-04T02:08:57;94618.84;;;6.18;100.00
11099;BME280;12223;42.650;23.364;2023-03-04T02:11:25;94619.22;;;6.15;100.00
11099;BME280;12223;42.650;23.364;2023-03-04T02:13:52;94616.78;;;6.14;100.00
11099;BME280;12223;42.650;23.364;2023-03-04T02:16:19;94606.56;;;6.19;100.00
11099;BME280;12223;42.650;23.364;2023-03-04T02:18:46;94616.41;;;6.17;100.00
11099;BME280;12223;42.650;23.364;2023-03-04T02:21:18;94610.34;;;6.16;100.00
11099;BME280;12223;42.650;23.364;2023-03-04T02:23:50;94615.78;;;6.15;100.00
11099;BME280;12223;42.650;23.364;2023-03-04T02:26:22;94615.59;;;6.16;100.00
11099;BME280;12223;42.650;23.364;2023-03-04T02:28:52;94607.53;;;6.11;100.00
11099;BME280;12223;42.650;23.364;2023-03-04T02:31:23;94615.19;;;6.13;100.00
11099;BME280;12223;42.650;23.364;2023-03-04T02:33:51;94606.53;;;6.12;100.00
11099;BME280;12223;42.650;23.364;2023-03-04T02:36:18;94615.16;;;6.06;100.00
11099;BME280;12223;42.650;23.364;2023-03-04T02:38:45;94611.53;;;6.00;100.00
11099;BME280;12223;42.650;23.364;2023-03-04T02:41:14;94607.06;;;6.01;100.00
11099;BME280;12223;42.650;23.364;2023-03-04T02:43:44;94602.59;;;5.95;100.00
11099;BME280;12223;42.650;23.364;2023-03-04T02:46:12;94597.56;;;5.93;100.00
11099;BME280;12223;42.650;23.364;2023-03-04T02:48:39;94589.91;;;5.92;100.00
11099;BME280;12223;42.650;23.364;2023-03-04T02:51:05;94566.81;;;5.74;100.00
11099;BME280;12223;42.650;23.364;2023-03-04T02:53:32;94586.06;;;5.88;100.00
11099;BME280;12223;42.650;23.364;2023-03-04T02:55:59;94587.03;;;5.87;100.00
11099;BME280;12223;42.650;23.364;2023-03-04T02:58:26;94589.09;;;5.91;100.00
11099;BME280;12223;42.650;23.364;2023-03-04T03:00:54;94590.91;;;5.91;100.00
11099;BME280;12223;42.650;23.364;2023-03-04T03:03:21;94592.88;;;5.89;100.00
11099;BME280;12223;42.650;23.364;2023-03-04T03:05:48;94588.81;;;5.80;100.00
11099;BME280;12223;42.650;23.364;2023-03-04T03:08:15;94575.47;;;5.75;100.00
11099;BME280;12223;42.650;23.364;2023-03-04T03:10:42;94583.13;;;5.76;100.00
11099;BME280;12223;42.650;23.364;2023-03-04T03:13:08;94583.75;;;5.78;100.00
11099;BME280;12223;42.650;23.364;2023-03-04T03:15:35;94591.19;;;5.75;100.00
11099;BME280;12223;42.650;23.364;2023-03-04T03:18:08;94584.53;;;5.72;100.00
11099;BME280;12223;42.650;23.364;2023-03-04T03:20:35;94588.63;;;5.81;100.00
11099;BME280;12223;42.650;23.364;2023-03-04T03:23:02;94580.69;;;5.68;100.00
11099;BME280;12223;42.650;23.364;2023-03-04T03:25:29;94588.97;;;5.72;100.00
11099;BME280;12223;42.650;23.364;2023-03-04T03:27:55;94582.28;;;5.69;100.00
11099;BME280;12223;42.650;23.364;2023-03-04T03:30:25;94579.88;;;5.68;100.00
11099;BME280;12223;42.650;23.364;2023-03-04T03:32:51;94578.06;;;5.68;100.00
11099;BME280;12223;42.650;23.364;2023-03-04T03:35:20;94577.63;;;5.64;100.00
11099;BME280;12223;42.650;23.364;2023-03-04T03:37:46;94570.50;;;5.52;100.00
11099;BME280;12223;42.650;23.364;2023-03-04T03:40:14;94568.28;;;5.49;100.00
11099;BME280;12223;42.650;23.364;2023-03-04T03:42:41;94556.78;;;5.43;100.00
11099;BME280;12223;42.650;23.364;2023-03-04T03:45:09;94554.75;;;5.45;100.00
11099;BME280;12223;42.650;23.364;2023-03-04T03:47:37;94548.66;;;5.38;100.00
11099;BME280;12223;42.650;23.364;2023-03-04T03:50:04;94550.88;;;5.35;100.00
11099;BME280;12223;42.650;23.364;2023-03-04T03:52:32;94536.44;;;5.11;100.00
11099;BME280;12223;42.650;23.364;2023-03-04T03:54:59;94538.69;;;5.20;100.00
11099;BME280;12223;42.650;23.364;2023-03-04T03:57:27;94537.28;;;5.18;100.00
11099;BME280;12223;42.650;23.364;2023-03-04T03:59:54;94538.25;;;5.10;100.00
11099;BME280;12223;42.650;23.364;2023-03-04T04:02:21;94541.03;;;5.09;100.00
11099;BME280;12223;42.650;23.364;2023-03-04T04:04:48;94533.16;;;5.02;100.00
11099;BME280;12223;42.650;23.364;2023-03-04T04:07:15;94519.44;;;5.00;100.00
11099;BME280;12223;42.650;23.364;2023-03-04T04:09:43;94522.22;;;4.92;100.00
11099;BME280;12223;42.650;23.364;2023-03-04T04:12:12;94516.25;;;4.77;100.00
11099;BME280;12223;42.650;23.364;2023-03-04T04:14:39;94513.16;;;4.67;100.00
11099;BME280;12223;42.650;23.364;2023-03-04T04:17:06;94499.59;;;4.57;100.00
11099;BME280;12223;42.650;23.364;2023-03-04T04:19:32;94489.28;;;4.49;100.00
11099;BME280;12223;42.650;23.364;2023-03-04T04:21:59;94484.19;;;4.40;100.00
11099;BME280;12223;42.650;23.364;2023-03-04T04:24:26;94483.31;;;4.33;100.00
11099;BME280;12223;42.650;23.364;2023-03-04T04:26:54;94480.47;;;4.28;100.00
11099;BME280;12223;42.650;23.364;2023-03-04T04:29:21;94482.44;;;4.26;100.00
11099;BME280;12223;42.650;23.364;2023-03-04T04:31:48;94480.81;;;4.25;100.00
11099;BME280;12223;42.650;23.364;2023-03-04T04:34:15;94483.59;;;4.17;100.00
11099;BME280;12223;42.650;23.364;2023-03-04T04:36:42;94477.34;;;4.18;100.00
11099;BME280;12223;42.650;23.364;2023-03-04T04:39:09;94479.72;;;4.13;100.00
11099;BME280;12223;42.650;23.364;2023-03-04T04:41:37;94472.44;;;4.09;100.00
11099;BME280;12223;42.650;23.364;2023-03-04T04:44:05;94488.13;;;4.09;100.00
11099;BME280;12223;42.650;23.364;2023-03-04T04:46:32;94499.75;;;4.06;100.00
11099;BME280;12223;42.650;23.364;2023-03-04T04:49:00;94504.72;;;4.01;100.00
11099;BME280;12223;42.650;23.364;2023-03-04T04:51:27;94504.47;;;3.96;100.00
11099;BME280;12223;42.650;23.364;2023-03-04T04:53:54;94515.28;;;3.93;100.00
11099;BME280;12223;42.650;23.364;2023-03-04T04:56:22;94532.06;;;3.84;100.00
11099;BME280;12223;42.650;23.364;2023-03-04T04:58:52;94525.22;;;3.83;100.00
11099;BME280;12223;42.650;23.364;2023-03-04T05:01:20;94510.63;;;3.74;100.00
11099;BME280;12223;42.650;23.364;2023-03-04T05:03:47;94539.44;;;3.80;100.00
11099;BME280;12223;42.650;23.364;2023-03-04T05:06:17;94542.34;;;3.85;100.00
11099;BME280;12223;42.650;23.364;2023-03-04T05:08:44;94552.47;;;3.95;100.00
11099;BME280;12223;42.650;23.364;2023-03-04T05:11:11;94558.66;;;4.09;100.00
11099;BME280;12223;42.650;23.364;2023-03-04T05:13:38;94568.63;;;4.20;100.00
11099;BME280;12223;42.650;23.364;2023-03-04T05:16:06;94570.31;;;4.27;100.00
11099;BME280;12223;42.650;23.364;2023-03-04T05:18:34;94583.28;;;4.35;100.00
11099;BME280;12223;42.650;23.364;2023-03-04T05:21:02;94581.81;;;4.48;100.00
11099;BME280;12223;42.650;23.364;2023-03-04T05:23:32;94594.38;;;4.59;100.00
11099;BME280;12223;42.650;23.364;2023-03-04T05:26:00;94605.31;;;4.69;100.00
11099;BME280;12223;42.650;23.364;2023-03-04T05:28:27;94615.03;;;4.75;100.00
11099;BME280;12223;42.650;23.364;2023-03-04T05:30:53;94626.44;;;4.67;100.00
11099;BME280;12223;42.650;23.364;2023-03-04T05:33:20;94615.22;;;4.52;100.00
11099;BME280;12223;42.650;23.364;2023-03-04T05:35:49;94641.88;;;4.62;100.00
11099;BME280;12223;42.650;23.364;2023-03-04T05:38:18;94636.56;;;4.56;100.00
11099;BME280;12223;42.650;23.364;2023-03-04T05:40:45;94630.97;;;4.59;100.00
11099;BME280;12223;42.650;23.364;2023-03-04T05:43:13;94632.28;;;4.69;100.00
11099;BME280;12223;42.650;23.364;2023-03-04T05:45:40;94632.00;;;4.79;100.00
11099;BME280;12223;42.650;23.364;2023-03-04T05:48:07;94631.84;;;4.87;100.00
11099;BME280;12223;42.650;23.364;2023-03-04T05:50:34;94631.59;;;5.03;100.00
11099;BME280;12223;42.650;23.364;2023-03-04T05:53:03;94638.28;;;5.06;100.00
11099;BME280;12223;42.650;23.364;2023-03-04T05:55:29;94641.50;;;5.08;100.00
11099;BME280;12223;42.650;23.364;2023-03-04T05:57:56;94637.94;;;5.15;100.00
11099;BME280;12223;42.650;23.364;2023-03-04T06:00:24;94645.28;;;5.26;100.00
11099;BME280;12223;42.650;23.364;2023-03-04T06:02:51;94648.19;;;5.38;100.00
11099;BME280;12223;42.650;23.364;2023-03-04T06:05:19;94637.06;;;5.30;100.00
11099;BME280;12223;42.650;23.364;2023-03-04T06:07:45;94665.38;;;5.47;100.00
11099;BME280;12223;42.650;23.364;2023-03-04T06:10:15;94645.59;;;5.45;100.00
11099;BME280;12223;42.650;23.364;2023-03-04T06:12:42;94665.44;;;5.54;100.00
11099;BME280;12223;42.650;23.364;2023-03-04T06:15:10;94668.56;;;5.43;100.00
11099;BME280;12223;42.650;23.364;2023-03-04T06:17:39;94668.41;;;5.51;100.00
11099;BME280;12223;42.650;23.364;2023-03-04T06:20:06;94664.66;;;5.60;100.00
11099;BME280;12223;42.650;23.364;2023-03-04T06:22:34;94659.88;;;5.70;100.00
11099;BME280;12223;42.650;23.364;2023-03-04T06:25:04;94664.47;;;5.89;100.00
11099;BME280;12223;42.650;23.364;2023-03-04T06:27:40;94672.31;;;5.89;100.00
11099;BME280;12223;42.650;23.364;2023-03-04T06:30:13;94655.44;;;5.71;100.00
11099;BME280;12223;42.650;23.364;2023-03-04T06:32:40;94689.22;;;5.59;100.00
11099;BME280;12223;42.650;23.364;2023-03-04T06:35:09;94688.41;;;5.58;100.00
11099;BME280;12223;42.650;23.364;2023-03-04T06:37:36;94672.47;;;5.53;100.00
11099;BME280;12223;42.650;23.364;2023-03-04T06:40:04;94656.75;;;5.53;100.00
11099;BME280;12223;42.650;23.364;2023-03-04T06:42:34;94668.38;;;5.44;100.00
11099;BME280;12223;42.650;23.364;2023-03-04T06:45:06;94671.31;;;5.35;100.00
11099;BME280;12223;42.650;23.364;2023-03-04T06:47:34;94666.91;;;5.35;100.00
11099;BME280;12223;42.650;23.364;2023-03-04T06:50:04;94662.09;;;5.39;100.00
11099;BME280;12223;42.650;23.364;2023-03-04T06:52:32;94656.66;;;5.40;100.00
11099;BME280;12223;42.650;23.364;2023-03-04T06:54:58;94665.59;;;5.52;100.00
11099;BME280;12223;42.650;23.364;2023-03-04T06:57:25;94664.09;;;5.64;100.00
11099;BME280;12223;42.650;23.364;2023-03-04T06:59:52;94672.22;;;5.76;100.00
11099;BME280;12223;42.650;23.364;2023-03-04T07:02:20;94683.94;;;5.80;100.00
11099;BME280;12223;42.650;23.364;2023-03-04T07:04:47;94696.91;;;5.88;100.00
11099;BME280;12223;42.650;23.364;2023-03-04T07:07:14;94696.97;;;5.95;100.00
11099;BME280;12223;42.650;23.364;2023-03-04T07:09:41;94707.41;;;5.88;100.00
11099;BME280;12223;42.650;23.364;2023-03-04T07:12:07;94711.03;;;5.87;100.00
11099;BME280;12223;42.650;23.364;2023-03-04T07:14:34;94708.13;;;5.82;100.00
11099;BME280;12223;42.650;23.364;2023-03-04T07:17:01;94710.47;;;5.71;100.00
11099;BME280;12223;42.650;23.364;2023-03-04T07:19:29;94704.06;;;5.73;100.00
11099;BME280;12223;42.650;23.364;2023-03-04T07:21:56;94689.34;;;5.72;100.00
11099;BME280;12223;42.650;23.364;2023-03-04T07:24:23;94698.88;;;5.80;100.00
11099;BME280;12223;42.650;23.364;2023-03-04T07:26:49;94708.94;;;5.83;100.00
11099;BME280;12223;42.650;23.364;2023-03-04T07:29:16;94703.34;;;5.86;100.00
11099;BME280;12223;42.650;23.364;2023-03-04T07:31:43;94703.19;;;5.87;100.00
11099;BME280;12223;42.650;23.364;2023-03-04T07:34:12;94711.19;;;5.86;100.00
11099;BME280;12223;42.650;23.364;2023-03-04T07:36:41;94704.41;;;5.91;100.00
11099;BME280;12223;42.650;23.364;2023-03-04T07:39:09;94703.03;;;6.02;100.00
11099;BME280;12223;42.650;23.364;2023-03-04T07:41:37;94701.50;;;6.14;100.00
11099;BME280;12223;42.650;23.364;2023-03-04T07:44:05;94700.38;;;6.30;100.00
11099;BME280;12223;42.650;23.364;2023-03-04T07:46:36;94699.78;;;6.34;100.00
11099;BME280;12223;42.650;23.364;2023-03-04T07:49:03;94712.63;;;6.57;100.00
11099;BME280;12223;42.650;23.364;2023-03-04T07:51:30;94711.41;;;6.60;100.00
11099;BME280;12223;42.650;23.364;2023-03-04T07:53:59;94719.50;;;6.71;100.00
11099;BME280;12223;42.650;23.364;2023-03-04T07:56:28;94725.81;;;6.83;100.00
11099;BME280;12223;42.650;23.364;2023-03-04T07:58:55;94720.41;;;6.92;100.00
11099;BME280;12223;42.650;23.364;2023-03-04T08:01:24;94702.19;;;6.83;100.00
11099;BME280;12223;42.650;23.364;2023-03-04T08:03:51;94727.69;;;7.09;100.00
11099;BME280;12223;42.650;23.364;2023-03-04T08:06:19;94720.06;;;7.14;100.00
11099;BME280;12223;42.650;23.364;2023-03-04T08:08:47;94729.53;;;7.22;100.00
11099;BME280;12223;42.650;23.364;2023-03-04T08:11:19;94725.13;;;7.29;100.00
11099;BME280;12223;42.650;23.364;2023-03-04T08:13:47;94732.00;;;7.43;100.00
11099;BME280;12223;42.650;23.364;2023-03-04T08:16:15;94726.56;;;7.51;100.00
11099;BME280;12223;42.650;23.364;2023-03-04T08:18:42;94740.09;;;7.68;100.00
11099;BME280;12223;42.650;23.364;2023-03-04T08:21:10;94737.06;;;7.84;100.00
11099;BME280;12223;42.650;23.364;2023-03-04T08:23:38;94740.31;;;7.93;100.00
11099;BME280;12223;42.650;23.364;2023-03-04T08:26:07;94745.16;;;8.02;100.00
11099;BME280;12223;42.650;23.364;2023-03-04T08:28:35;94731.59;;;7.92;100.00
11099;BME280;12223;42.650;23.364;2023-03-04T08:31:02;94741.09;;;8.13;100.00
11099;BME280;12223;42.650;23.364;2023-03-04T08:33:30;94746.34;;;8.20;100.00
11099;BME280;12223;42.650;23.364;2023-03-04T08:35:57;94735.47;;;7.96;100.00
11099;BME280;12223;42.650;23.364;2023-03-04T08:38:23;94736.47;;;8.08;100.00
11099;BME280;12223;42.650;23.364;2023-03-04T08:40:54;94723.28;;;8.15;100.00
11099;BME280;12223;42.650;23.364;2023-03-04T08:43:24;94734.19;;;8.25;100.00
11099;BME280;12223;42.650;23.364;2023-03-04T08:45:53;94728.13;;;8.25;100.00
11099;BME280;12223;42.650;23.364;2023-03-04T08:48:20;94730.75;;;8.38;100.00
11099;BME280;12223;42.650;23.364;2023-03-04T08:50:48;94739.00;;;8.55;100.00
11099;BME280;12223;42.650;23.364;2023-03-04T08:53:16;94743.69;;;8.46;100.00
11099;BME280;12223;42.650;23.364;2023-03-04T08:55:44;94734.81;;;8.14;100.00
11099;BME280;12223;42.650;23.364;2023-03-04T08:58:12;94720.06;;;8.00;100.00
11099;BME280;12223;42.650;23.364;2023-03-04T09:00:41;94737.69;;;7.93;100.00
11099;BME280;12223;42.650;23.364;2023-03-04T09:03:14;94726.56;;;7.64;100.00
11099;BME280;12223;42.650;23.364;2023-03-04T09:05:43;94723.72;;;7.53;100.00
11099;BME280;12223;42.650;23.364;2023-03-04T09:08:11;94719.69;;;7.70;100.00
11099;BME280;12223;42.650;23.364;2023-03-04T09:10:38;94606.09;;;6.69;100.00
11099;BME280;12223;42.650;23.364;2023-03-04T09:13:05;94716.88;;;7.58;100.00
11099;BME280;12223;42.650;23.364;2023-03-04T09:15:32;94714.03;;;7.66;100.00
11099;BME280;12223;42.650;23.364;2023-03-04T09:18:01;94712.41;;;7.72;100.00
11099;BME280;12223;42.650;23.364;2023-03-04T09:20:29;94706.31;;;7.85;100.00
11099;BME280;12223;42.650;23.364;2023-03-04T09:22:57;94720.50;;;7.84;100.00
11099;BME280;12223;42.650;23.364;2023-03-04T09:25:24;94706.56;;;7.77;100.00
11099;BME280;12223;42.650;23.364;2023-03-04T09:27:52;94701.88;;;7.85;100.00
11099;BME280;12223;42.650;23.364;2023-03-04T09:30:19;94710.53;;;8.12;100.00
11099;BME280;12223;42.650;23.364;2023-03-04T09:32:54;94689.88;;;8.35;100.00
11099;BME280;12223;42.650;23.364;2023-03-04T09:35:21;94700.78;;;8.45;100.00
11099;BME280;12223;42.650;23.364;2023-03-04T09:37:50;94702.72;;;8.63;100.00
11099;BME280;12223;42.650;23.364;2023-03-04T09:40:20;94699.78;;;8.46;100.00
11099;BME280;12223;42.650;23.364;2023-03-04T09:42:50;94690.50;;;8.31;100.00
11099;BME280;12223;42.650;23.364;2023-03-04T09:45:26;94692.63;;;8.54;100.00
11099;BME280;12223;42.650;23.364;2023-03-04T09:47:59;94701.19;;;8.87;100.00
11099;BME280;12223;42.650;23.364;2023-03-04T09:50:30;94693.59;;;9.10;100.00
11099;BME280;12223;42.650;23.364;2023-03-04T09:53:15;94708.28;;;9.24;100.00
11099;BME280;12223;42.650;23.364;2023-03-04T09:55:48;94648.28;;;8.95;100.00
11099;BME280;12223;42.650;23.364;2023-03-04T09:58:26;94690.25;;;8.90;100.00
11099;BME280;12223;42.650;23.364;2023-03-04T10:01:06;94707.13;;;8.76;100.00
11099;BME280;12223;42.650;23.364;2023-03-04T10:03:41;94690.91;;;8.79;100.00
11099;BME280;12223;42.650;23.364;2023-03-04T10:06:15;94690.50;;;8.82;100.00
11099;BME280;12223;42.650;23.364;2023-03-04T10:08:50;94655.94;;;8.72;100.00
11099;BME280;12223;42.650;23.364;2023-03-04T10:11:23;94677.78;;;8.72;100.00
11099;BME280;12223;42.650;23.364;2023-03-04T10:13:55;94688.94;;;9.06;100.00
11099;BME280;12223;42.650;23.364;2023-03-04T10:16:25;94684.72;;;9.29;100.00
11099;BME280;12223;42.650;23.364;2023-03-04T10:18:58;94676.56;;;9.62;100.00
11099;BME280;12223;42.650;23.364;2023-03-04T10:21:31;94675.63;;;10.00;100.00
11099;BME280;12223;42.650;23.364;2023-03-04T10:24:11;94673.28;;;9.92;100.00
11099;BME280;12223;42.650;23.364;2023-03-04T10:26:41;94672.19;;;9.99;100.00
11099;BME280;12223;42.650;23.364;2023-03-04T10:29:13;94667.22;;;10.09;100.00
11099;BME280;12223;42.650;23.364;2023-03-04T10:31:41;94666.59;;;10.32;100.00
11099;BME280;12223;42.650;23.364;2023-03-04T10:34:09;94670.75;;;10.03;100.00
11099;BME280;12223;42.650;23.364;2023-03-04T10:36:49;94642.47;;;9.67;100.00
11099;BME280;12223;42.650;23.364;2023-03-04T10:39:23;94662.59;;;9.37;100.00
11099;BME280;12223;42.650;23.364;2023-03-04T10:41:56;94660.84;;;9.24;100.00
11099;BME280;12223;42.650;23.364;2023-03-04T10:44:24;94653.22;;;9.16;100.00
11099;BME280;12223;42.650;23.364;2023-03-04T10:46:53;94654.53;;;9.01;100.00
11099;BME280;12223;42.650;23.364;2023-03-04T10:49:21;94643.66;;;8.91;100.00
11099;BME280;12223;42.650;23.364;2023-03-04T10:51:51;94639.09;;;9.36;100.00
11099;BME280;12223;42.650;23.364;2023-03-04T10:54:26;94634.19;;;9.64;100.00
11099;BME280;12223;42.650;23.364;2023-03-04T10:56:59;94625.41;;;9.70;100.00
11099;BME280;12223;42.650;23.364;2023-03-04T10:59:42;94615.16;;;9.80;100.00
11099;BME280;12223;42.650;23.364;2023-03-04T11:02:15;94623.47;;;10.02;100.00
11099;BME280;12223;42.650;23.364;2023-03-04T11:04:48;94616.19;;;10.22;100.00
11099;BME280;12223;42.650;23.364;2023-03-04T11:07:17;94614.84;;;10.31;100.00
11099;BME280;12223;42.650;23.364;2023-03-04T11:09:45;94617.91;;;10.76;100.00
11099;BME280;12223;42.650;23.364;2023-03-04T11:12:14;94605.25;;;10.97;94.97
11099;BME280;12223;42.650;23.364;2023-03-04T11:14:45;94582.38;;;10.91;95.22
11099;BME280;12223;42.650;23.364;2023-03-04T11:17:21;94592.28;;;11.07;93.32
11099;BME280;12223;42.650;23.364;2023-03-04T11:19:54;94596.03;;;10.58;91.85
11099;BME280;12223;42.650;23.364;2023-03-04T11:22:23;94588.69;;;10.30;93.67
11099;BME280;12223;42.650;23.364;2023-03-04T11:25:04;94581.84;;;10.40;96.91
11099;BME280;12223;42.650;23.364;2023-03-04T11:27:43;94581.50;;;10.37;96.84
11099;BME280;12223;42.650;23.364;2023-03-04T11:30:39;94578.56;;;10.27;97.73
11099;BME280;12223;42.650;23.364;2023-03-04T11:33:23;94570.75;;;10.50;98.37
11099;BME280;12223;42.650;23.364;2023-03-04T11:36:02;94565.50;;;10.32;95.31
11099;BME280;12223;42.650;23.364;2023-03-04T11:38:35;94562.13;;;10.25;97.04
11099;BME280;12223;42.650;23.364;2023-03-04T11:41:10;94556.50;;;10.51;97.06
11099;BME280;12223;42.650;23.364;2023-03-04T11:43:38;94537.69;;;10.47;93.67
11099;BME280;12223;42.650;23.364;2023-03-04T11:49:32;94550.00;;;11.07;92.75
11099;BME280;12223;42.650;23.364;2023-03-04T11:52:14;94558.34;;;10.80;86.69
11099;BME280;12223;42.650;23.364;2023-03-04T11:54:48;94549.44;;;10.15;92.43
11099;BME280;12223;42.650;23.364;2023-03-04T11:57:30;94552.69;;;9.99;95.37
11099;BME280;12223;42.650;23.364;2023-03-04T12:00:17;94547.56;;;10.04;98.04
11099;BME280;12223;42.650;23.364;2023-03-04T12:02:54;94539.13;;;9.77;98.93
11099;BME280;12223;42.650;23.364;2023-03-04T12:05:28;94545.94;;;9.85;100.00
11099;BME280;12223;42.650;23.364;2023-03-04T12:08:22;94541.97;;;9.94;100.00
11099;BME280;12223;42.650;23.364;2023-03-04T12:10:58;94535.81;;;10.18;100.00
11099;BME280;12223;42.650;23.364;2023-03-04T12:13:40;94526.50;;;10.34;97.98
11099;BME280;12223;42.650;23.364;2023-03-04T12:16:36;94529.47;;;10.37;95.09
11099;BME280;12223;42.650;23.364;2023-03-04T12:19:17;94517.22;;;9.95;96.34
11099;BME280;12223;42.650;23.364;2023-03-04T12:22:01;94524.53;;;10.11;98.49
11099;BME280;12223;42.650;23.364;2023-03-04T12:27:29;94523.56;;;10.42;98.30
11099;BME280;12223;42.650;23.364;2023-03-04T12:30:00;94506.53;;;10.38;96.32
11099;BME280;12223;42.650;23.364;2023-03-04T12:32:36;94518.41;;;10.47;98.07
11099;BME280;12223;42.650;23.364;2023-03-04T12:38:14;94511.38;;;10.41;94.47
11099;BME280;12223;42.650;23.364;2023-03-04T12:40:49;94452.38;;;9.87;94.80
11099;BME280;12223;42.650;23.364;2023-03-04T12:43:31;94481.53;;;9.92;97.93
11099;BME280;12223;42.650;23.364;2023-03-04T12:46:16;94496.16;;;10.25;99.16
11099;BME280;12223;42.650;23.364;2023-03-04T12:48:50;94461.16;;;10.18;98.04
11099;BME280;12223;42.650;23.364;2023-03-04T12:51:30;94505.78;;;10.49;93.80
11099;BME280;12223;42.650;23.364;2023-03-04T12:54:20;94486.88;;;10.04;95.43
11099;BME280;12223;42.650;23.364;2023-03-04T12:57:11;94467.69;;;9.97;95.06
11099;BME280;12223;42.650;23.364;2023-03-04T12:59:43;94485.19;;;10.39;94.74
11099;BME280;12223;42.650;23.364;2023-03-04T13:02:35;94481.38;;;10.24;96.38
11099;BME280;12223;42.650;23.364;2023-03-04T13:05:23;94486.41;;;10.25;94.74
11099;BME280;12223;42.650;23.364;2023-03-04T13:07:59;94480.25;;;10.13;96.00
11099;BME280;12223;42.650;23.364;2023-03-04T13:10:27;94472.28;;;10.20;97.34
11099;BME280;12223;42.650;23.364;2023-03-04T13:12:55;94443.72;;;9.80;96.91